sensor_id;sensor_type;location;lat;lon;timestamp;P1;durP1;ratioP1;P2;durP2;ratioP2
81656;SDS011;71067;51.482;-0.580;2024-03-02T00:02:25;3.60;;;1.67;;
81656;SDS011;71067;51.482;-0.580;2024-03-02T00:04:50;5.57;;;1.80;;
81656;SDS011;71067;51.482;-0.580;2024-03-02T00:07:16;3.65;;;1.55;;
81656;SDS011;71067;51.482;-0.580;2024-03-02T00:09:42;6.25;;;1.10;;
81656;SDS011;71067;51.482;-0.580;2024-03-02T00:12:07;7.00;;;1.35;;
81656;SDS011;71067;51.482;-0.580;2024-03-02T00:14:33;5.07;;;1.40;;
81656;SDS011;71067;51.482;-0.580;2024-03-02T00:16:58;6.37;;;1.40;;
81656;SDS011;71067;51.482;-0.580;2024-03-02T00:19:24;3.67;;;1.42;;
81656;SDS011;71067;51.482;-0.580;2024-03-02T00:21:50;4.05;;;1.10;;
81656;SDS011;71067;51.482;-0.580;2024-03-02T00:24:20;3.72;;;1.10;;
81656;SDS011;71067;51.482;-0.580;2024-03-02T00:26:47;3.53;;;0.82;;
81656;SDS011;71067;51.482;-0.580;2024-03-02T00:29:14;4.68;;;1.17;;
81656;SDS011;71067;51.482;-0.580;2024-03-02T00:31:44;4.93;;;1.30;;
81656;SDS011;71067;51.482;-0.580;2024-03-02T00:34:09;5.10;;;2.25;;
81656;SDS011;71067;51.482;-0.580;2024-03-02T00:36:38;4.72;;;1.10;;
81656;SDS011;71067;51.482;-0.580;2024-03-02T00:39:04;5.38;;;1.00;;
81656;SDS011;71067;51.482;-0.580;2024-03-02T00:41:32;2.47;;;0.80;;
81656;SDS011;71067;51.482;-0.580;2024-03-02T00:44:02;4.60;;;0.77;;
81656;SDS011;71067;51.482;-0.580;2024-03-02T00:46:41;2.95;;;0.70;;
81656;SDS011;71067;51.482;-0.580;2024-03-02T00:49:20;4.70;;;0.70;;
81656;SDS011;71067;51.482;-0.580;2024-03-02T00:51:47;2.92;;;0.60;;
81656;SDS011;71067;51.482;-0.580;2024-03-02T00:54:14;2.35;;;0.57;;
81656;SDS011;71067;51.482;-0.580;2024-03-02T00:56:41;4.95;;;0.70;;
81656;SDS011;71067;51.482;-0.580;2024-03-02T00:59:07;2.38;;;0.40;;
81656;SDS011;71067;51.482;-0.580;2024-03-02T01:01:33;3.55;;;0.68;;
81656;SDS011;71067;51.482;-0.580;2024-03-02T01:03:59;3.33;;;0.40;;
81656;SDS011;71067;51.482;-0.580;2024-03-02T01:06:24;1.80;;;0.45;;
81656;SDS011;71067;51.482;-0.580;2024-03-02T01:08:50;1.77;;;0.50;;
81656;SDS011;71067;51.482;-0.580;2024-03-02T01:11:16;1.30;;;0.43;;
81656;SDS011;71067;51.482;-0.580;2024-03-02T01:13:41;2.40;;;0.60;;
81656;SDS011;71067;51.482;-0.580;2024-03-02T01:16:07;2.85;;;0.70;;
81656;SDS011;71067;51.482;-0.580;2024-03-02T01:18:32;3.03;;;0.80;;
81656;SDS011;71067;51.482;-0.580;2024-03-02T01:20:57;2.77;;;0.50;;
81656;SDS011;71067;51.482;-0.580;2024-03-02T01:23:23;3.00;;;0.68;;
81656;SDS011;71067;51.482;-0.580;2024-03-02T01:25:49;1.88;;;0.75;;
81656;SDS011;71067;51.482;-0.580;2024-03-02T01:28:15;1.13;;;0.50;;
81656;SDS011;71067;51.482;-0.580;2024-03-02T01:30:41;3.63;;;0.50;;
81656;SDS011;71067;51.482;-0.580;2024-03-02T01:33:06;3.58;;;0.68;;
81656;SDS011;71067;51.482;-0.580;2024-03-02T01:35:32;1.27;;;0.68;;
81656;SDS011;71067;51.482;-0.580;2024-03-02T01:37:58;2.63;;;0.68;;
81656;SDS011;71067;51.482;-0.580;2024-03-02T01:40:23;2.85;;;0.60;;
81656;SDS011;71067;51.482;-0.580;2024-03-02T01:42:52;1.70;;;0.80;;
81656;SDS011;71067;51.482;-0.580;2024-03-02T01:45:23;4.00;;;0.90;;
81656;SDS011;71067;51.482;-0.580;2024-03-02T01:47:48;5.10;;;1.10;;
81656;SDS011;71067;51.482;-0.580;2024-03-02T01:50:14;2.58;;;0.70;;
81656;SDS011;71067;51.482;-0.580;2024-03-02T01:52:40;4.53;;;0.88;;
81656;SDS011;71067;51.482;-0.580;2024-03-02T01:55:05;3.13;;;0.80;;
81656;SDS011;71067;51.482;-0.580;2024-03-02T01:57:31;3.33;;;0.90;;
81656;SDS011;71067;51.482;-0.580;2024-03-02T01:59:57;3.15;;;0.80;;
81656;SDS011;71067;51.482;-0.580;2024-03-02T02:02:22;4.03;;;0.77;;
81656;SDS011;71067;51.482;-0.580;2024-03-02T02:04:48;3.90;;;1.02;;
81656;SDS011;71067;51.482;-0.580;2024-03-02T02:07:13;1.67;;;0.50;;
81656;SDS011;71067;51.482;-0.580;2024-03-02T02:09:40;2.10;;;0.65;;
81656;SDS011;71067;51.482;-0.580;2024-03-02T02:12:06;3.78;;;0.73;;
81656;SDS011;71067;51.482;-0.580;2024-03-02T02:14:32;4.45;;;0.60;;
81656;SDS011;71067;51.482;-0.580;2024-03-02T02:16:58;2.03;;;0.40;;
81656;SDS011;71067;51.482;-0.580;2024-03-02T02:19:23;1.55;;;0.80;;
81656;SDS011;71067;51.482;-0.580;2024-03-02T02:21:49;3.15;;;0.40;;
81656;SDS011;71067;51.482;-0.580;2024-03-02T02:24:14;1.53;;;0.30;;
81656;SDS011;71067;51.482;-0.580;2024-03-02T02:26:39;0.80;;;0.30;;
81656;SDS011;71067;51.482;-0.580;2024-03-02T02:29:04;1.53;;;0.23;;
81656;SDS011;71067;51.482;-0.580;2024-03-02T02:31:37;1.67;;;0.30;;
81656;SDS011;71067;51.482;-0.580;2024-03-02T02:34:05;1.40;;;0.20;;
81656;SDS011;71067;51.482;-0.580;2024-03-02T02:36:33;1.02;;;0.20;;
81656;SDS011;71067;51.482;-0.580;2024-03-02T02:39:00;1.60;;;0.30;;
81656;SDS011;71067;51.482;-0.580;2024-03-02T02:41:31;1.13;;;0.10;;
81656;SDS011;71067;51.482;-0.580;2024-03-02T02:43:57;1.10;;;0.28;;
81656;SDS011;71067;51.482;-0.580;2024-03-02T02:46:22;1.13;;;0.20;;
81656;SDS011;71067;51.482;-0.580;2024-03-02T02:48:48;1.58;;;0.35;;
81656;SDS011;71067;51.482;-0.580;2024-03-02T02:51:13;1.02;;;0.20;;
81656;SDS011;71067;51.482;-0.580;2024-03-02T02:53:38;1.47;;;0.30;;
81656;SDS011;71067;51.482;-0.580;2024-03-02T02:56:06;3.60;;;0.55;;
81656;SDS011;71067;51.482;-0.580;2024-03-02T02:58:32;1.48;;;0.30;;
81656;SDS011;71067;51.482;-0.580;2024-03-02T03:00:57;0.00;;;0.00;;
81656;SDS011;71067;51.482;-0.580;2024-03-02T03:03:22;0.97;;;0.40;;
81656;SDS011;71067;51.482;-0.580;2024-03-02T03:05:48;1.63;;;0.33;;
81656;SDS011;71067;51.482;-0.580;2024-03-02T03:08:13;1.75;;;0.60;;
81656;SDS011;71067;51.482;-0.580;2024-03-02T03:10:39;1.58;;;0.47;;
81656;SDS011;71067;51.482;-0.580;2024-03-02T03:13:05;3.22;;;0.60;;
81656;SDS011;71067;51.482;-0.580;2024-03-02T03:15:34;3.03;;;0.60;;
81656;SDS011;71067;51.482;-0.580;2024-03-02T03:17:59;1.35;;;0.40;;
81656;SDS011;71067;51.482;-0.580;2024-03-02T03:20:25;2.67;;;0.30;;
81656;SDS011;71067;51.482;-0.580;2024-03-02T03:22:50;1.10;;;0.30;;
81656;SDS011;71067;51.482;-0.580;2024-03-02T03:25:15;2.80;;;0.33;;
81656;SDS011;71067;51.482;-0.580;2024-03-02T03:27:40;2.37;;;0.30;;
81656;SDS011;71067;51.482;-0.580;2024-03-02T03:30:06;1.60;;;0.52;;
81656;SDS011;71067;51.482;-0.580;2024-03-02T03:32:32;5.65;;;0.57;;
81656;SDS011;71067;51.482;-0.580;2024-03-02T03:34:57;3.27;;;0.57;;
81656;SDS011;71067;51.482;-0.580;2024-03-02T03:37:23;4.22;;;0.50;;
81656;SDS011;71067;51.482;-0.580;2024-03-02T03:39:49;3.10;;;0.55;;
81656;SDS011;71067;51.482;-0.580;2024-03-02T03:42:14;4.95;;;0.70;;
81656;SDS011;71067;51.482;-0.580;2024-03-02T03:44:39;4.82;;;0.75;;
81656;SDS011;71067;51.482;-0.580;2024-03-02T03:47:06;3.83;;;0.65;;
81656;SDS011;71067;51.482;-0.580;2024-03-02T03:49:31;4.85;;;0.65;;
81656;SDS011;71067;51.482;-0.580;2024-03-02T03:51:57;3.97;;;0.77;;
81656;SDS011;71067;51.482;-0.580;2024-03-02T03:54:22;3.88;;;1.17;;
81656;SDS011;71067;51.482;-0.580;2024-03-02T03:56:47;8.25;;;1.15;;
81656;SDS011;71067;51.482;-0.580;2024-03-02T03:59:13;6.07;;;1.23;;
81656;SDS011;71067;51.482;-0.580;2024-03-02T04:01:38;4.07;;;1.20;;
81656;SDS011;71067;51.482;-0.580;2024-03-02T04:04:03;3.22;;;1.13;;
81656;SDS011;71067;51.482;-0.580;2024-03-02T04:06:29;10.43;;;1.40;;
81656;SDS011;71067;51.482;-0.580;2024-03-02T04:08:54;5.75;;;1.17;;
81656;SDS011;71067;51.482;-0.580;2024-03-02T04:11:20;6.45;;;1.45;;
81656;SDS011;71067;51.482;-0.580;2024-03-02T04:13:45;7.18;;;1.48;;
81656;SDS011;71067;51.482;-0.580;2024-03-02T04:16:11;5.30;;;1.15;;
81656;SDS011;71067;51.482;-0.580;2024-03-02T04:18:37;6.00;;;1.23;;
81656;SDS011;71067;51.482;-0.580;2024-03-02T04:21:03;8.18;;;1.25;;
81656;SDS011;71067;51.482;-0.580;2024-03-02T04:23:28;5.82;;;1.25;;
81656;SDS011;71067;51.482;-0.580;2024-03-02T04:25:53;9.17;;;1.83;;
81656;SDS011;71067;51.482;-0.580;2024-03-02T04:28:19;7.83;;;1.50;;
81656;SDS011;71067;51.482;-0.580;2024-03-02T04:30:44;13.53;;;1.97;;
81656;SDS011;71067;51.482;-0.580;2024-03-02T04:33:09;11.07;;;1.40;;
81656;SDS011;71067;51.482;-0.580;2024-03-02T04:35:38;8.63;;;1.48;;
81656;SDS011;71067;51.482;-0.580;2024-03-02T04:38:03;11.30;;;2.08;;
81656;SDS011;71067;51.482;-0.580;2024-03-02T04:40:29;5.65;;;1.40;;
81656;SDS011;71067;51.482;-0.580;2024-03-02T04:42:54;11.95;;;1.23;;
81656;SDS011;71067;51.482;-0.580;2024-03-02T04:45:19;7.68;;;1.50;;
81656;SDS011;71067;51.482;-0.580;2024-03-02T04:47:45;8.40;;;1.57;;
81656;SDS011;71067;51.482;-0.580;2024-03-02T04:50:10;8.93;;;2.20;;
81656;SDS011;71067;51.482;-0.580;2024-03-02T04:52:35;9.70;;;1.67;;
81656;SDS011;71067;51.482;-0.580;2024-03-02T04:55:01;9.00;;;1.52;;
81656;SDS011;71067;51.482;-0.580;2024-03-02T04:57:50;9.02;;;1.70;;
81656;SDS011;71067;51.482;-0.580;2024-03-02T05:00:16;9.35;;;1.90;;
81656;SDS011;71067;51.482;-0.580;2024-03-02T05:02:42;8.35;;;1.25;;
81656;SDS011;71067;51.482;-0.580;2024-03-02T05:05:07;8.40;;;1.42;;
81656;SDS011;71067;51.482;-0.580;2024-03-02T05:07:32;9.18;;;1.35;;
81656;SDS011;71067;51.482;-0.580;2024-03-02T05:09:58;5.93;;;1.60;;
81656;SDS011;71067;51.482;-0.580;2024-03-02T05:12:23;8.85;;;1.50;;
81656;SDS011;71067;51.482;-0.580;2024-03-02T05:15:07;8.65;;;1.33;;
81656;SDS011;71067;51.482;-0.580;2024-03-02T05:17:32;5.40;;;1.40;;
81656;SDS011;71067;51.482;-0.580;2024-03-02T05:19:58;8.32;;;1.50;;
81656;SDS011;71067;51.482;-0.580;2024-03-02T05:22:24;5.78;;;1.40;;
81656;SDS011;71067;51.482;-0.580;2024-03-02T05:24:49;10.80;;;1.77;;
81656;SDS011;71067;51.482;-0.580;2024-03-02T05:27:14;8.93;;;1.47;;
81656;SDS011;71067;51.482;-0.580;2024-03-02T05:29:40;7.20;;;1.77;;
81656;SDS011;71067;51.482;-0.580;2024-03-02T05:32:05;11.65;;;2.28;;
81656;SDS011;71067;51.482;-0.580;2024-03-02T05:34:31;11.10;;;1.73;;
81656;SDS011;71067;51.482;-0.580;2024-03-02T05:36:57;12.00;;;2.60;;
81656;SDS011;71067;51.482;-0.580;2024-03-02T05:39:23;8.68;;;1.85;;
81656;SDS011;71067;51.482;-0.580;2024-03-02T05:41:48;13.13;;;1.77;;
81656;SDS011;71067;51.482;-0.580;2024-03-02T05:44:13;11.20;;;2.67;;
81656;SDS011;71067;51.482;-0.580;2024-03-02T05:46:40;9.65;;;1.42;;
81656;SDS011;71067;51.482;-0.580;2024-03-02T05:49:06;9.23;;;1.50;;
81656;SDS011;71067;51.482;-0.580;2024-03-02T05:51:34;7.15;;;1.55;;
81656;SDS011;71067;51.482;-0.580;2024-03-02T05:54:00;15.13;;;1.88;;
81656;SDS011;71067;51.482;-0.580;2024-03-02T05:56:25;23.73;;;2.33;;
81656;SDS011;71067;51.482;-0.580;2024-03-02T05:58:50;11.80;;;2.67;;
81656;SDS011;71067;51.482;-0.580;2024-03-02T06:01:34;12.73;;;3.45;;
81656;SDS011;71067;51.482;-0.580;2024-03-02T06:04:00;10.48;;;1.20;;
81656;SDS011;71067;51.482;-0.580;2024-03-02T06:06:25;11.50;;;1.77;;
81656;SDS011;71067;51.482;-0.580;2024-03-02T06:08:51;12.15;;;1.27;;
81656;SDS011;71067;51.482;-0.580;2024-03-02T06:11:16;9.82;;;1.45;;
81656;SDS011;71067;51.482;-0.580;2024-03-02T06:13:42;11.90;;;1.80;;
81656;SDS011;71067;51.482;-0.580;2024-03-02T06:16:07;4.35;;;1.27;;
81656;SDS011;71067;51.482;-0.580;2024-03-02T06:18:33;4.45;;;1.20;;
81656;SDS011;71067;51.482;-0.580;2024-03-02T06:20:59;4.80;;;0.98;;
81656;SDS011;71067;51.482;-0.580;2024-03-02T06:23:26;4.28;;;1.10;;
81656;SDS011;71067;51.482;-0.580;2024-03-02T06:25:51;3.05;;;1.10;;
81656;SDS011;71067;51.482;-0.580;2024-03-02T06:28:16;5.53;;;1.30;;
81656;SDS011;71067;51.482;-0.580;2024-03-02T06:30:42;3.33;;;0.70;;
81656;SDS011;71067;51.482;-0.580;2024-03-02T06:33:08;7.10;;;1.00;;
81656;SDS011;71067;51.482;-0.580;2024-03-02T06:35:33;4.45;;;2.00;;
81656;SDS011;71067;51.482;-0.580;2024-03-02T06:38:00;3.08;;;1.00;;
81656;SDS011;71067;51.482;-0.580;2024-03-02T06:40:25;5.65;;;0.90;;
81656;SDS011;71067;51.482;-0.580;2024-03-02T06:42:50;7.23;;;1.00;;
81656;SDS011;71067;51.482;-0.580;2024-03-02T06:45:16;3.47;;;0.73;;
81656;SDS011;71067;51.482;-0.580;2024-03-02T06:47:41;3.20;;;0.70;;
81656;SDS011;71067;51.482;-0.580;2024-03-02T06:50:06;3.87;;;0.97;;
81656;SDS011;71067;51.482;-0.580;2024-03-02T06:52:32;5.57;;;0.82;;
81656;SDS011;71067;51.482;-0.580;2024-03-02T06:54:57;4.57;;;0.60;;
81656;SDS011;71067;51.482;-0.580;2024-03-02T06:57:23;3.28;;;0.85;;
81656;SDS011;71067;51.482;-0.580;2024-03-02T06:59:49;2.63;;;0.55;;
81656;SDS011;71067;51.482;-0.580;2024-03-02T07:02:16;2.65;;;0.60;;
81656;SDS011;71067;51.482;-0.580;2024-03-02T07:04:41;4.45;;;0.73;;
81656;SDS011;71067;51.482;-0.580;2024-03-02T07:07:07;8.40;;;1.02;;
81656;SDS011;71067;51.482;-0.580;2024-03-02T07:09:32;3.28;;;0.60;;
81656;SDS011;71067;51.482;-0.580;2024-03-02T07:11:57;4.57;;;0.70;;
81656;SDS011;71067;51.482;-0.580;2024-03-02T07:14:23;3.47;;;0.70;;
81656;SDS011;71067;51.482;-0.580;2024-03-02T07:17:08;1.23;;;0.47;;
81656;SDS011;71067;51.482;-0.580;2024-03-02T07:19:34;3.72;;;0.70;;
81656;SDS011;71067;51.482;-0.580;2024-03-02T07:22:00;3.73;;;0.63;;
81656;SDS011;71067;51.482;-0.580;2024-03-02T07:24:25;5.18;;;0.80;;
81656;SDS011;71067;51.482;-0.580;2024-03-02T07:26:50;3.37;;;0.60;;
81656;SDS011;71067;51.482;-0.580;2024-03-02T07:29:16;2.60;;;0.73;;
81656;SDS011;71067;51.482;-0.580;2024-03-02T07:31:42;4.67;;;0.70;;
81656;SDS011;71067;51.482;-0.580;2024-03-02T07:34:07;2.20;;;0.40;;
81656;SDS011;71067;51.482;-0.580;2024-03-02T07:36:32;4.10;;;0.53;;
81656;SDS011;71067;51.482;-0.580;2024-03-02T07:38:58;2.28;;;0.32;;
81656;SDS011;71067;51.482;-0.580;2024-03-02T07:41:23;2.95;;;0.40;;
81656;SDS011;71067;51.482;-0.580;2024-03-02T07:43:48;1.77;;;0.40;;
81656;SDS011;71067;51.482;-0.580;2024-03-02T07:46:14;2.17;;;0.25;;
81656;SDS011;71067;51.482;-0.580;2024-03-02T07:48:39;1.75;;;0.63;;
81656;SDS011;71067;51.482;-0.580;2024-03-02T07:51:05;3.50;;;0.90;;
81656;SDS011;71067;51.482;-0.580;2024-03-02T07:53:30;2.63;;;0.55;;
81656;SDS011;71067;51.482;-0.580;2024-03-02T07:55:55;1.23;;;0.50;;
81656;SDS011;71067;51.482;-0.580;2024-03-02T07:58:26;1.38;;;0.60;;
81656;SDS011;71067;51.482;-0.580;2024-03-02T08:00:52;7.22;;;3.88;;
81656;SDS011;71067;51.482;-0.580;2024-03-02T08:03:17;4.78;;;1.98;;
81656;SDS011;71067;51.482;-0.580;2024-03-02T08:05:42;2.88;;;0.73;;
81656;SDS011;71067;51.482;-0.580;2024-03-02T08:08:09;4.15;;;1.83;;
81656;SDS011;71067;51.482;-0.580;2024-03-02T08:10:34;4.53;;;1.38;;
81656;SDS011;71067;51.482;-0.580;2024-03-02T08:13:00;1.85;;;0.60;;
81656;SDS011;71067;51.482;-0.580;2024-03-02T08:15:26;4.10;;;0.82;;
81656;SDS011;71067;51.482;-0.580;2024-03-02T08:17:51;2.55;;;0.80;;
81656;SDS011;71067;51.482;-0.580;2024-03-02T08:20:17;2.45;;;0.98;;
81656;SDS011;71067;51.482;-0.580;2024-03-02T08:22:42;5.88;;;1.27;;
81656;SDS011;71067;51.482;-0.580;2024-03-02T08:25:08;4.70;;;0.98;;
81656;SDS011;71067;51.482;-0.580;2024-03-02T08:27:34;2.30;;;0.50;;
81656;SDS011;71067;51.482;-0.580;2024-03-02T08:30:00;3.38;;;0.77;;
81656;SDS011;71067;51.482;-0.580;2024-03-02T08:32:25;1.88;;;0.52;;
81656;SDS011;71067;51.482;-0.580;2024-03-02T08:34:51;4.50;;;1.00;;
81656;SDS011;71067;51.482;-0.580;2024-03-02T08:37:16;3.47;;;0.70;;
81656;SDS011;71067;51.482;-0.580;2024-03-02T08:39:41;1.42;;;0.40;;
81656;SDS011;71067;51.482;-0.580;2024-03-02T08:42:07;1.20;;;0.60;;
81656;SDS011;71067;51.482;-0.580;2024-03-02T08:44:32;1.73;;;0.40;;
81656;SDS011;71067;51.482;-0.580;2024-03-02T08:46:58;1.85;;;0.30;;
81656;SDS011;71067;51.482;-0.580;2024-03-02T08:49:24;1.85;;;0.30;;
81656;SDS011;71067;51.482;-0.580;2024-03-02T08:51:49;2.88;;;0.40;;
81656;SDS011;71067;51.482;-0.580;2024-03-02T08:54:20;2.58;;;0.25;;
81656;SDS011;71067;51.482;-0.580;2024-03-02T08:56:46;1.05;;;0.30;;
81656;SDS011;71067;51.482;-0.580;2024-03-02T08:59:12;2.22;;;0.30;;
81656;SDS011;71067;51.482;-0.580;2024-03-02T09:01:37;1.30;;;0.20;;
81656;SDS011;71067;51.482;-0.580;2024-03-02T09:04:06;2.10;;;0.30;;
81656;SDS011;71067;51.482;-0.580;2024-03-02T09:06:33;0.30;;;0.20;;
81656;SDS011;71067;51.482;-0.580;2024-03-02T09:08:59;1.38;;;0.20;;
81656;SDS011;71067;51.482;-0.580;2024-03-02T09:11:24;1.43;;;0.30;;
81656;SDS011;71067;51.482;-0.580;2024-03-02T09:13:50;2.28;;;0.45;;
81656;SDS011;71067;51.482;-0.580;2024-03-02T09:16:15;0.93;;;0.20;;
81656;SDS011;71067;51.482;-0.580;2024-03-02T09:18:40;0.80;;;0.25;;
81656;SDS011;71067;51.482;-0.580;2024-03-02T09:21:06;1.58;;;0.30;;
81656;SDS011;71067;51.482;-0.580;2024-03-02T09:23:32;1.75;;;0.38;;
81656;SDS011;71067;51.482;-0.580;2024-03-02T09:25:58;2.20;;;0.32;;
81656;SDS011;71067;51.482;-0.580;2024-03-02T09:28:23;1.38;;;0.40;;
81656;SDS011;71067;51.482;-0.580;2024-03-02T09:30:48;0.98;;;0.47;;
81656;SDS011;71067;51.482;-0.580;2024-03-02T09:33:16;0.70;;;0.30;;
81656;SDS011;71067;51.482;-0.580;2024-03-02T09:35:42;2.05;;;0.30;;
81656;SDS011;71067;51.482;-0.580;2024-03-02T09:38:07;2.00;;;0.30;;
81656;SDS011;71067;51.482;-0.580;2024-03-02T09:40:32;1.80;;;0.52;;
81656;SDS011;71067;51.482;-0.580;2024-03-02T09:42:58;1.98;;;0.50;;
81656;SDS011;71067;51.482;-0.580;2024-03-02T09:45:24;3.45;;;0.77;;
81656;SDS011;71067;51.482;-0.580;2024-03-02T09:47:50;1.88;;;0.57;;
81656;SDS011;71067;51.482;-0.580;2024-03-02T09:50:15;1.40;;;0.50;;
81656;SDS011;71067;51.482;-0.580;2024-03-02T09:52:44;1.75;;;0.40;;
81656;SDS011;71067;51.482;-0.580;2024-03-02T09:55:13;1.20;;;0.47;;
81656;SDS011;71067;51.482;-0.580;2024-03-02T09:57:40;1.50;;;0.40;;
81656;SDS011;71067;51.482;-0.580;2024-03-02T10:00:07;1.33;;;0.45;;
81656;SDS011;71067;51.482;-0.580;2024-03-02T10:02:36;0.82;;;0.30;;
81656;SDS011;71067;51.482;-0.580;2024-03-02T10:05:06;1.02;;;0.38;;
81656;SDS011;71067;51.482;-0.580;2024-03-02T10:07:31;1.98;;;0.30;;
81656;SDS011;71067;51.482;-0.580;2024-03-02T10:09:57;2.30;;;0.60;;
81656;SDS011;71067;51.482;-0.580;2024-03-02T10:12:22;2.15;;;0.50;;
81656;SDS011;71067;51.482;-0.580;2024-03-02T10:14:47;2.70;;;0.77;;
81656;SDS011;71067;51.482;-0.580;2024-03-02T10:17:16;2.55;;;0.70;;
81656;SDS011;71067;51.482;-0.580;2024-03-02T10:19:42;2.35;;;0.50;;
81656;SDS011;71067;51.482;-0.580;2024-03-02T10:22:08;1.45;;;0.43;;
81656;SDS011;71067;51.482;-0.580;2024-03-02T10:24:42;3.67;;;0.50;;
81656;SDS011;71067;51.482;-0.580;2024-03-02T10:27:19;0.88;;;0.40;;
81656;SDS011;71067;51.482;-0.580;2024-03-02T10:29:50;3.25;;;0.60;;
81656;SDS011;71067;51.482;-0.580;2024-03-02T10:32:15;1.87;;;0.50;;
81656;SDS011;71067;51.482;-0.580;2024-03-02T10:34:42;1.10;;;0.43;;
81656;SDS011;71067;51.482;-0.580;2024-03-02T10:37:10;0.90;;;0.43;;
81656;SDS011;71067;51.482;-0.580;2024-03-02T10:39:36;1.50;;;0.50;;
81656;SDS011;71067;51.482;-0.580;2024-03-02T10:42:04;1.83;;;0.93;;
81656;SDS011;71067;51.482;-0.580;2024-03-02T10:44:31;2.10;;;0.70;;
81656;SDS011;71067;51.482;-0.580;2024-03-02T10:46:57;1.40;;;0.32;;
81656;SDS011;71067;51.482;-0.580;2024-03-02T10:49:25;2.35;;;1.45;;
81656;SDS011;71067;51.482;-0.580;2024-03-02T10:51:52;2.58;;;1.10;;
81656;SDS011;71067;51.482;-0.580;2024-03-02T10:54:18;2.75;;;1.00;;
81656;SDS011;71067;51.482;-0.580;2024-03-02T10:56:44;2.67;;;0.85;;
81656;SDS011;71067;51.482;-0.580;2024-03-02T10:59:21;2.20;;;0.70;;
81656;SDS011;71067;51.482;-0.580;2024-03-02T11:01:55;2.33;;;0.75;;
81656;SDS011;71067;51.482;-0.580;2024-03-02T11:04:23;1.48;;;0.70;;
81656;SDS011;71067;51.482;-0.580;2024-03-02T11:06:50;2.33;;;0.80;;
81656;SDS011;71067;51.482;-0.580;2024-03-02T11:09:18;1.60;;;0.50;;
81656;SDS011;71067;51.482;-0.580;2024-03-02T11:11:48;2.75;;;0.70;;
81656;SDS011;71067;51.482;-0.580;2024-03-02T11:14:21;2.65;;;0.65;;
81656;SDS011;71067;51.482;-0.580;2024-03-02T11:16:49;1.10;;;0.60;;
81656;SDS011;71067;51.482;-0.580;2024-03-02T11:19:16;1.88;;;0.63;;
81656;SDS011;71067;51.482;-0.580;2024-03-02T11:21:41;1.35;;;0.73;;
81656;SDS011;71067;51.482;-0.580;2024-03-02T11:26:49;2.83;;;0.85;;
81656;SDS011;71067;51.482;-0.580;2024-03-02T11:32:02;1.40;;;0.70;;
81656;SDS011;71067;51.482;-0.580;2024-03-02T11:34:47;1.95;;;0.80;;
81656;SDS011;71067;51.482;-0.580;2024-03-02T11:37:15;1.63;;;0.70;;
81656;SDS011;71067;51.482;-0.580;2024-03-02T11:39:45;2.17;;;0.80;;
81656;SDS011;71067;51.482;-0.580;2024-03-02T11:42:12;2.03;;;0.80;;
81656;SDS011;71067;51.482;-0.580;2024-03-02T11:44:39;2.33;;;0.50;;
81656;SDS011;71067;51.482;-0.580;2024-03-02T11:47:06;1.02;;;0.50;;
81656;SDS011;71067;51.482;-0.580;2024-03-02T11:49:40;2.22;;;0.85;;
81656;SDS011;71067;51.482;-0.580;2024-03-02T11:52:06;2.00;;;0.80;;
81656;SDS011;71067;51.482;-0.580;2024-03-02T11:54:34;0.68;;;0.40;;
81656;SDS011;71067;51.482;-0.580;2024-03-02T11:57:01;1.10;;;0.40;;
81656;SDS011;71067;51.482;-0.580;2024-03-02T11:59:28;1.60;;;0.70;;
81656;SDS011;71067;51.482;-0.580;2024-03-02T12:01:54;2.47;;;1.10;;
81656;SDS011;71067;51.482;-0.580;2024-03-02T12:04:21;1.00;;;0.43;;
81656;SDS011;71067;51.482;-0.580;2024-03-02T12:06:48;1.60;;;0.70;;
81656;SDS011;71067;51.482;-0.580;2024-03-02T12:09:20;1.45;;;0.50;;
81656;SDS011;71067;51.482;-0.580;2024-03-02T12:11:46;1.13;;;0.75;;
81656;SDS011;71067;51.482;-0.580;2024-03-02T12:14:11;0.87;;;0.40;;
81656;SDS011;71067;51.482;-0.580;2024-03-02T12:16:43;1.88;;;0.50;;
81656;SDS011;71067;51.482;-0.580;2024-03-02T12:19:09;2.03;;;0.40;;
81656;SDS011;71067;51.482;-0.580;2024-03-02T12:21:34;1.30;;;0.40;;
81656;SDS011;71067;51.482;-0.580;2024-03-02T12:24:00;1.55;;;0.50;;
81656;SDS011;71067;51.482;-0.580;2024-03-02T12:26:26;1.27;;;0.73;;
81656;SDS011;71067;51.482;-0.580;2024-03-02T12:28:52;1.42;;;0.60;;
81656;SDS011;71067;51.482;-0.580;2024-03-02T12:31:17;1.85;;;0.45;;
81656;SDS011;71067;51.482;-0.580;2024-03-02T12:33:43;1.42;;;0.60;;
81656;SDS011;71067;51.482;-0.580;2024-03-02T12:36:13;1.20;;;0.45;;
81656;SDS011;71067;51.482;-0.580;2024-03-02T12:38:42;1.10;;;0.45;;
81656;SDS011;71067;51.482;-0.580;2024-03-02T12:41:08;1.75;;;0.50;;
81656;SDS011;71067;51.482;-0.580;2024-03-02T12:43:34;2.72;;;0.60;;
81656;SDS011;71067;51.482;-0.580;2024-03-02T12:45:59;2.00;;;0.50;;
81656;SDS011;71067;51.482;-0.580;2024-03-02T12:48:25;1.58;;;0.55;;
81656;SDS011;71067;51.482;-0.580;2024-03-02T12:50:50;1.67;;;0.50;;
81656;SDS011;71067;51.482;-0.580;2024-03-02T12:53:15;1.33;;;0.55;;
81656;SDS011;71067;51.482;-0.580;2024-03-02T12:55:41;2.95;;;0.82;;
81656;SDS011;71067;51.482;-0.580;2024-03-02T12:58:08;2.33;;;0.60;;
81656;SDS011;71067;51.482;-0.580;2024-03-02T13:00:33;1.58;;;0.75;;
81656;SDS011;71067;51.482;-0.580;2024-03-02T13:03:00;1.63;;;0.50;;
81656;SDS011;71067;51.482;-0.580;2024-03-02T13:05:31;1.90;;;0.50;;
81656;SDS011;71067;51.482;-0.580;2024-03-02T13:07:57;1.30;;;0.77;;
81656;SDS011;71067;51.482;-0.580;2024-03-02T13:10:24;2.95;;;0.60;;
81656;SDS011;71067;51.482;-0.580;2024-03-02T13:12:50;1.67;;;0.60;;
81656;SDS011;71067;51.482;-0.580;2024-03-02T13:15:15;1.83;;;0.70;;
81656;SDS011;71067;51.482;-0.580;2024-03-02T13:17:40;2.25;;;0.47;;
81656;SDS011;71067;51.482;-0.580;2024-03-02T13:20:06;1.58;;;0.60;;
81656;SDS011;71067;51.482;-0.580;2024-03-02T13:22:33;2.90;;;0.70;;
81656;SDS011;71067;51.482;-0.580;2024-03-02T13:24:58;1.48;;;1.00;;
81656;SDS011;71067;51.482;-0.580;2024-03-02T13:27:25;1.98;;;0.80;;
81656;SDS011;71067;51.482;-0.580;2024-03-02T13:29:50;1.40;;;0.60;;
81656;SDS011;71067;51.482;-0.580;2024-03-02T13:32:16;1.05;;;0.40;;
81656;SDS011;71067;51.482;-0.580;2024-03-02T13:34:42;1.33;;;0.68;;
81656;SDS011;71067;51.482;-0.580;2024-03-02T13:37:08;1.95;;;0.80;;
81656;SDS011;71067;51.482;-0.580;2024-03-02T13:39:34;1.33;;;0.68;;
81656;SDS011;71067;51.482;-0.580;2024-03-02T13:42:06;2.97;;;0.60;;
81656;SDS011;71067;51.482;-0.580;2024-03-02T13:44:33;1.10;;;0.60;;
81656;SDS011;71067;51.482;-0.580;2024-03-02T13:46:59;0.88;;;0.45;;
81656;SDS011;71067;51.482;-0.580;2024-03-02T13:49:25;1.10;;;0.50;;
81656;SDS011;71067;51.482;-0.580;2024-03-02T13:51:58;1.73;;;0.50;;
81656;SDS011;71067;51.482;-0.580;2024-03-02T13:54:25;1.90;;;0.68;;
81656;SDS011;71067;51.482;-0.580;2024-03-02T13:56:51;1.83;;;0.57;;
81656;SDS011;71067;51.482;-0.580;2024-03-02T13:59:17;1.73;;;0.70;;
81656;SDS011;71067;51.482;-0.580;2024-03-02T14:01:42;1.40;;;0.60;;
81656;SDS011;71067;51.482;-0.580;2024-03-02T14:04:08;1.25;;;0.55;;
81656;SDS011;71067;51.482;-0.580;2024-03-02T14:06:33;1.10;;;0.60;;
81656;SDS011;71067;51.482;-0.580;2024-03-02T14:08:59;1.63;;;0.80;;
81656;SDS011;71067;51.482;-0.580;2024-03-02T14:11:24;1.15;;;0.77;;
81656;SDS011;71067;51.482;-0.580;2024-03-02T14:13:50;2.00;;;0.67;;
81656;SDS011;71067;51.482;-0.580;2024-03-02T14:16:19;1.45;;;0.63;;
81656;SDS011;71067;51.482;-0.580;2024-03-02T14:18:45;2.35;;;1.38;;
81656;SDS011;71067;51.482;-0.580;2024-03-02T14:21:10;1.40;;;0.70;;
81656;SDS011;71067;51.482;-0.580;2024-03-02T14:23:36;1.52;;;0.70;;
81656;SDS011;71067;51.482;-0.580;2024-03-02T14:26:01;1.48;;;0.80;;
81656;SDS011;71067;51.482;-0.580;2024-03-02T14:28:26;2.05;;;0.80;;
81656;SDS011;71067;51.482;-0.580;2024-03-02T14:30:52;1.40;;;0.80;;
81656;SDS011;71067;51.482;-0.580;2024-03-02T14:33:18;1.33;;;0.70;;
81656;SDS011;71067;51.482;-0.580;2024-03-02T14:35:44;1.98;;;0.73;;